Time;durP1;ratioP1;P1;durP2;ratioP2;P2;SDS_P1;SDS_P2;PMS_P1;PMS_P2;Temp;Humidity;BMP_temperature;BMP_pressure;BME280_temperature;BME280_humidity;BME280_pressure;Samples;Min_cycle;Max_cycle;Signal;HPM_P1;HPM_P2
2023/08/13 00:02:05;;;;;;;7.60;4.10;;;18.20;99.90;;;;;;5013114;28;20262;-72
2023/08/13 00:04:31;;;;;;;8.23;3.93;;;18.20;99.90;;;;;;5013498;28;20813;-71
2023/08/13 00:06:56;;;;;;;6.80;4.57;;;18.30;99.90;;;;;;5013573;28;20169;-71
2023/08/13 00:09:22;;;;;;;4.73;3.73;;;18.30;99.90;;;;;;5013313;28;20645;-71
2023/08/13 00:11:48;;;;;;;7.30;3.83;;;18.30;99.90;;;;;;5013141;28;20275;-73
2023/08/13 00:14:14;;;;;;;4.50;4.07;;;18.40;99.90;;;;;;5012936;28;20671;-72
2023/08/13 00:16:39;;;;;;;4.40;4.00;;;18.40;99.90;;;;;;5013325;28;20259;-73
2023/08/13 00:19:06;;;;;;;7.17;3.80;;;18.40;99.90;;;;;;5012940;28;20219;-72
2023/08/13 00:21:31;;;;;;;5.57;4.03;;;18.40;99.90;;;;;;5012975;28;20189;-71
2023/08/13 00:23:57;;;;;;;5.70;4.07;;;18.40;99.90;;;;;;5013058;28;20226;-73
2023/08/13 00:26:23;;;;;;;4.77;3.83;;;18.40;99.90;;;;;;5013238;28;20164;-72
2023/08/13 00:28:48;;;;;;;9.30;4.07;;;18.40;99.90;;;;;;5013049;28;20704;-70
2023/08/13 00:31:14;;;;;;;5.23;4.07;;;18.30;99.90;;;;;;5012804;28;20208;-74
2023/08/13 00:33:39;;;;;;;4.63;3.83;;;18.30;99.90;;;;;;5011454;28;20275;-70
2023/08/13 00:36:06;;;;;;;8.40;3.80;;;18.20;99.90;;;;;;5013170;28;20212;-70
2023/08/13 00:38:31;;;;;;;5.37;4.10;;;18.20;99.90;;;;;;5012310;28;20180;-71
2023/08/13 00:40:57;;;;;;;4.13;3.80;;;18.10;99.90;;;;;;5012441;28;20211;-70
2023/08/13 00:43:22;;;;;;;6.70;4.43;;;18.10;99.90;;;;;;5012370;28;20255;-71
2023/08/13 00:45:48;;;;;;;5.00;3.87;;;18.00;99.90;;;;;;5012378;28;20164;-73
2023/08/13 00:48:14;;;;;;;7.20;3.87;;;18.00;99.90;;;;;;5012177;28;20184;-71
2023/08/13 00:50:40;;;;;;;6.80;4.07;;;18.00;99.90;;;;;;5012512;28;20203;-70
2023/08/13 00:53:06;;;;;;;8.20;4.23;;;17.90;99.90;;;;;;5010845;28;20548;-70
2023/08/13 00:55:33;;;;;;;4.87;3.87;;;17.90;99.90;;;;;;5012402;28;20222;-70
2023/08/13 00:57:59;;;;;;;8.50;4.57;;;17.90;99.90;;;;;;5012346;28;20187;-71
2023/08/13 01:00:26;;;;;;;5.10;4.60;;;17.80;99.90;;;;;;5011277;28;20218;-71
2023/08/13 01:02:52;;;;;;;9.87;4.50;;;17.80;99.90;;;;;;5011634;28;20172;-71
2023/08/13 01:05:20;;;;;;;4.70;3.97;;;17.70;99.90;;;;;;5010318;28;20238;-71
2023/08/13 01:07:54;;;;;;;7.23;4.10;;;17.70;99.90;;;;;;5012107;28;20176;-71
2023/08/13 01:10:36;;;;;;;5.50;4.07;;;17.70;99.90;;;;;;5011726;28;20199;-71
2023/08/13 01:13:22;;;;;;;4.47;4.07;;;17.60;99.90;;;;;;5011901;28;20168;-70
2023/08/13 01:15:50;;;;;;;5.87;4.10;;;17.60;99.90;;;;;;5012165;28;20184;-71
2023/08/13 01:18:16;;;;;;;5.00;4.20;;;17.60;99.90;;;;;;5012005;28;20179;-72
2023/08/13 01:20:43;;;;;;;5.53;3.90;;;17.50;99.90;;;;;;5010542;28;20697;-71
2023/08/13 01:23:09;;;;;;;6.50;4.00;;;17.40;99.90;;;;;;5011478;28;20184;-71
2023/08/13 01:25:36;;;;;;;6.63;4.83;;;17.30;99.90;;;;;;5012061;28;20319;-71
2023/08/13 01:28:28;;;;;;;7.17;4.60;;;17.30;99.90;;;;;;5011817;28;20637;-71
2023/08/13 01:31:04;;;;;;;7.30;3.90;;;17.30;99.90;;;;;;5010346;28;20222;-71
2023/08/13 01:33:33;;;;;;;9.03;4.63;;;17.20;99.90;;;;;;5009748;28;20179;-71
2023/08/13 01:36:07;;;;;;;9.37;4.97;;;17.20;99.90;;;;;;5011712;28;20172;-71
2023/08/13 01:38:33;;;;;;;8.47;4.80;;;17.20;99.90;;;;;;5009786;28;20180;-72
2023/08/13 01:41:03;;;;;;;10.23;4.77;;;17.20;99.90;;;;;;5011068;28;20589;-71
2023/08/13 01:43:29;;;;;;;9.10;4.87;;;17.20;99.90;;;;;;5011932;28;20641;-72
2023/08/13 01:45:55;;;;;;;7.30;4.73;;;17.20;99.90;;;;;;5011226;28;20214;-71
2023/08/13 01:48:20;;;;;;;5.90;4.23;;;17.20;99.90;;;;;;5011370;28;20513;-71
2023/08/13 01:50:46;;;;;;;8.67;4.37;;;17.20;99.90;;;;;;5011452;28;20238;-72
2023/08/13 01:53:11;;;;;;;6.80;4.13;;;17.10;99.90;;;;;;5011235;28;20180;-72
2023/08/13 01:55:37;;;;;;;7.03;4.63;;;17.10;99.90;;;;;;5011468;28;20180;-71
2023/08/13 01:58:03;;;;;;;5.03;4.50;;;17.10;99.90;;;;;;5009226;28;20669;-71
2023/08/13 02:00:29;;;;;;;4.40;4.00;;;17.00;99.90;;;;;;5011432;28;20208;-72
2023/08/13 02:02:55;;;;;;;6.77;4.40;;;17.00;99.90;;;;;;5011571;28;20656;-72
2023/08/13 02:05:21;;;;;;;7.40;3.70;;;16.90;99.90;;;;;;5013557;28;20175;-71
2023/08/13 02:07:46;;;;;;;7.27;4.70;;;16.90;99.90;;;;;;5013935;28;20524;-71
2023/08/13 02:10:12;;;;;;;6.43;4.20;;;16.90;99.90;;;;;;5012863;28;20294;-70
2023/08/13 02:12:39;;;;;;;14.30;4.73;;;16.80;99.90;;;;;;5012179;28;20262;-72
2023/08/13 02:15:05;;;;;;;5.33;4.43;;;16.80;99.90;;;;;;5012487;28;20206;-71
2023/08/13 02:17:31;;;;;;;6.17;4.40;;;16.70;99.90;;;;;;5013858;28;20187;-71
2023/08/13 02:19:56;;;;;;;4.63;4.20;;;16.70;99.90;;;;;;5013392;28;20211;-71
2023/08/13 02:22:22;;;;;;;7.07;4.47;;;16.70;99.90;;;;;;5013208;28;20168;-70
2023/08/13 02:24:47;;;;;;;4.70;3.90;;;16.70;99.90;;;;;;5011714;28;20169;-72
2023/08/13 02:27:13;;;;;;;6.97;4.60;;;16.60;99.90;;;;;;5011353;28;20206;-73
2023/08/13 02:29:39;;;;;;;9.97;4.27;;;16.70;99.90;;;;;;5010973;28;20676;-73
2023/08/13 02:32:04;;;;;;;4.53;4.17;;;16.70;99.90;;;;;;5010607;28;20207;-73
2023/08/13 02:34:42;;;;;;;6.37;4.57;;;16.70;99.90;;;;;;5011479;28;20168;-71
2023/08/13 02:37:08;;;;;;;5.43;4.60;;;16.70;99.90;;;;;;5011635;28;20176;-71
2023/08/13 02:39:34;;;;;;;8.47;4.30;;;16.70;99.90;;;;;;5011042;28;20556;-70
2023/08/13 02:41:59;;;;;;;7.37;4.23;;;16.80;99.90;;;;;;5010829;28;20175;-71
2023/08/13 02:44:26;;;;;;;6.93;4.50;;;16.80;99.90;;;;;;5009391;28;20172;-71
2023/08/13 02:46:52;;;;;;;6.57;3.87;;;16.80;99.90;;;;;;5011533;28;20634;-71
2023/08/13 02:49:18;;;;;;;7.67;4.43;;;16.70;99.90;;;;;;5011295;28;20300;-71
2023/08/13 02:51:43;;;;;;;6.00;4.07;;;16.70;99.90;;;;;;5011090;28;20192;-70
2023/08/13 02:54:09;;;;;;;10.63;4.43;;;16.70;99.90;;;;;;5010963;28;20175;-71
2023/08/13 02:56:34;;;;;;;10.00;4.63;;;16.70;99.90;;;;;;5011219;28;20197;-71
2023/08/13 02:59:00;;;;;;;8.00;4.10;;;16.70;99.90;;;;;;5011133;28;20204;-71
2023/08/13 03:01:26;;;;;;;10.70;4.77;;;16.60;99.90;;;;;;5010913;28;20215;-71
2023/08/13 03:03:52;;;;;;;5.87;4.90;;;16.60;99.90;;;;;;5010809;28;20454;-71
2023/08/13 03:06:22;;;;;;;8.13;4.27;;;16.60;99.90;;;;;;5011176;28;20188;-71
2023/08/13 03:08:48;;;;;;;4.43;3.70;;;16.60;99.90;;;;;;5013014;28;20168;-72
2023/08/13 03:11:14;;;;;;;5.43;3.93;;;16.60;99.90;;;;;;5015045;28;20695;-73
2023/08/13 03:13:39;;;;;;;6.23;4.47;;;16.50;99.90;;;;;;5014699;28;20642;-70
2023/08/13 03:16:05;;;;;;;4.27;3.90;;;16.50;99.90;;;;;;5012975;28;20179;-71
2023/08/13 03:18:31;;;;;;;5.83;4.43;;;16.40;99.90;;;;;;5014495;28;20557;-72
2023/08/13 03:20:56;;;;;;;7.07;4.80;;;16.40;99.90;;;;;;5014001;28;20232;-72
2023/08/13 03:23:22;;;;;;;5.73;4.40;;;16.40;99.90;;;;;;5014255;28;20246;-70
2023/08/13 03:25:47;;;;;;;7.50;4.67;;;16.30;99.90;;;;;;5013952;28;20172;-71
2023/08/13 03:28:13;;;;;;;8.77;4.90;;;16.20;99.90;;;;;;5014576;28;20180;-71
2023/08/13 03:30:39;;;;;;;9.87;5.40;;;16.10;99.90;;;;;;5014278;28;20255;-72
2023/08/13 03:33:04;;;;;;;5.63;4.93;;;16.10;99.90;;;;;;5012534;28;20215;-71
2023/08/13 03:35:30;;;;;;;10.77;4.40;;;16.10;99.90;;;;;;5013769;28;20229;-72
2023/08/13 03:37:56;;;;;;;6.43;4.80;;;16.00;99.90;;;;;;5014017;28;20660;-72
2023/08/13 03:40:21;;;;;;;6.40;4.70;;;16.00;99.90;;;;;;5014060;28;20212;-71
2023/08/13 03:42:47;;;;;;;8.20;5.03;;;16.00;99.90;;;;;;5013804;28;20164;-72
2023/08/13 03:45:13;;;;;;;7.23;4.80;;;16.00;99.90;;;;;;5013694;28;20182;-72
2023/08/13 03:47:38;;;;;;;12.37;4.70;;;15.90;99.90;;;;;;5013902;28;20251;-72
2023/08/13 03:50:04;;;;;;;7.00;4.43;;;15.80;99.90;;;;;;5012039;28;20200;-71
2023/08/13 03:52:30;;;;;;;8.83;4.67;;;15.80;99.90;;;;;;5013357;28;20184;-73
2023/08/13 03:54:55;;;;;;;6.10;5.10;;;15.80;99.90;;;;;;5013990;28;20183;-72
2023/08/13 03:57:21;;;;;;;11.67;5.10;;;15.80;99.90;;;;;;5014052;28;20626;-73
2023/08/13 03:59:46;;;;;;;6.27;5.47;;;15.70;99.90;;;;;;5012382;28;20208;-73
2023/08/13 04:02:12;;;;;;;12.63;4.97;;;15.60;99.90;;;;;;5012168;28;20169;-72
2023/08/13 04:04:38;;;;;;;10.40;5.07;;;15.60;99.90;;;;;;5013715;28;20175;-71
2023/08/13 04:07:03;;;;;;;8.87;4.97;;;15.50;99.90;;;;;;5013449;28;20314;-71
2023/08/13 04:09:29;;;;;;;12.30;5.23;;;15.60;99.90;;;;;;5013434;28;20172;-70
2023/08/13 04:11:54;;;;;;;6.93;5.13;;;15.60;99.90;;;;;;5013170;28;20173;-71
2023/08/13 04:14:20;;;;;;;5.67;4.70;;;15.60;99.90;;;;;;5013697;28;20187;-71
2023/08/13 04:16:46;;;;;;;5.67;5.07;;;15.60;99.90;;;;;;5013427;28;20171;-71
2023/08/13 04:19:11;;;;;;;10.77;5.23;;;15.60;99.90;;;;;;5012760;28;20633;-71
2023/08/13 04:21:37;;;;;;;14.43;5.87;;;15.60;99.90;;;;;;5011244;28;20204;-71
2023/08/13 04:24:03;;;;;;;11.00;5.13;;;15.60;99.90;;;;;;5012853;28;20183;-70
2023/08/13 04:26:29;;;;;;;6.97;5.23;;;15.60;99.90;;;;;;5012977;28;20187;-72
2023/08/13 04:28:54;;;;;;;8.37;5.47;;;15.60;99.90;;;;;;5012053;28;20188;-71
2023/08/13 04:31:20;;;;;;;8.97;5.60;;;15.60;99.90;;;;;;5013299;28;20231;-73
2023/08/13 04:33:49;;;;;;;9.70;5.57;;;15.70;99.90;;;;;;5013168;28;20172;-72
2023/08/13 04:36:15;;;;;;;14.07;5.70;;;15.70;99.90;;;;;;5013133;28;20176;-72
2023/08/13 04:38:41;;;;;;;8.63;5.60;;;15.70;99.90;;;;;;5013201;28;20175;-72
2023/08/13 04:41:06;;;;;;;9.43;5.50;;;15.70;99.90;;;;;;5049402;23;20689;-87
2023/08/13 04:43:32;;;;;;;5.93;5.37;;;15.80;99.90;;;;;;5052333;28;20221;-88
2023/08/13 04:45:58;;;;;;;6.40;5.07;;;15.90;99.90;;;;;;5053868;28;20179;-87
2023/08/13 04:48:47;;;;;;;13.57;5.10;;;16.00;99.90;;;;;;5053373;28;20222;-87
2023/08/13 04:51:15;;;;;;;10.53;5.30;;;16.00;99.90;;;;;;5053060;28;20236;-87
2023/08/13 04:53:41;;;;;;;7.83;5.20;;;16.00;99.90;;;;;;5054161;28;20189;-87
2023/08/13 04:56:07;;;;;;;7.37;5.03;;;16.10;99.90;;;;;;5051116;28;20629;-87
2023/08/13 04:58:34;;;;;;;9.43;4.87;;;16.10;99.90;;;;;;5053678;28;20199;-87
2023/08/13 05:01:00;;;;;;;8.93;5.30;;;16.10;99.90;;;;;;5051013;28;20849;-87
2023/08/13 05:03:27;;;;;;;7.07;4.73;;;16.20;99.90;;;;;;5052386;28;20171;-88
2023/08/13 05:05:52;;;;;;;7.47;4.90;;;16.20;99.90;;;;;;5053542;28;20238;-88
2023/08/13 05:08:18;;;;;;;7.43;4.77;;;16.30;99.90;;;;;;5052547;28;20199;-88
2023/08/13 05:10:45;;;;;;;6.20;4.60;;;16.30;99.90;;;;;;5052378;28;20170;-88
2023/08/13 05:13:10;;;;;;;7.47;4.87;;;16.40;99.90;;;;;;5052494;28;20175;-87
2023/08/13 05:15:36;;;;;;;13.73;5.33;;;16.50;99.90;;;;;;5052636;28;20582;-87
2023/08/13 05:18:02;;;;;;;7.80;4.53;;;16.60;99.90;;;;;;5045208;28;20203;-87
2023/08/13 05:20:27;;;;;;;5.77;4.47;;;16.70;99.90;;;;;;5032330;28;20207;-88
2023/08/13 05:22:53;;;;;;;6.40;4.50;;;16.80;99.90;;;;;;5040332;28;20198;-88
2023/08/13 05:25:19;;;;;;;6.27;4.40;;;16.80;99.90;;;;;;5034225;28;20641;-87
2023/08/13 05:27:44;;;;;;;7.43;4.50;;;16.90;99.90;;;;;;5044241;28;20257;-87
2023/08/13 05:30:13;;;;;;;13.73;4.60;;;17.00;99.90;;;;;;5032114;28;20234;-88
2023/08/13 05:32:39;;;;;;;5.57;3.67;;;17.00;99.90;;;;;;5032740;28;20202;-87
2023/08/13 05:35:06;;;;;;;5.27;4.03;;;17.00;99.90;;;;;;5032489;28;20637;-88
2023/08/13 05:37:32;;;;;;;5.47;4.13;;;17.10;99.90;;;;;;5032339;28;20245;-87
2023/08/13 05:39:57;;;;;;;7.43;4.63;;;17.30;99.90;;;;;;5032115;28;20207;-87
2023/08/13 05:42:23;;;;;;;4.67;3.93;;;17.40;99.90;;;;;;5032459;28;20274;-88
2023/08/13 05:44:48;;;;;;;5.60;4.27;;;17.50;99.90;;;;;;5037603;28;20175;-87
2023/08/13 05:47:14;;;;;;;9.97;4.53;;;17.60;99.90;;;;;;5053901;28;20191;-85
2023/08/13 05:49:40;;;;;;;4.40;3.80;;;17.70;99.90;;;;;;5043194;28;20210;-87
2023/08/13 05:52:05;;;;;;;8.70;4.37;;;17.70;99.90;;;;;;5034342;28;20222;-86
2023/08/13 05:54:31;;;;;;;6.67;3.87;;;17.70;99.90;;;;;;5033523;28;20176;-87
2023/08/13 05:56:57;;;;;;;5.87;4.10;;;17.80;99.90;;;;;;5033421;28;20211;-87
2023/08/13 05:59:22;;;;;;;7.97;3.67;;;17.90;99.90;;;;;;5033098;28;20180;-87
2023/08/13 06:01:48;;;;;;;6.17;3.60;;;17.90;99.90;;;;;;5032498;28;20187;-88
2023/08/13 06:04:14;;;;;;;5.23;3.97;;;18.10;99.90;;;;;;5033663;28;20536;-88
2023/08/13 06:06:44;;;;;;;6.37;3.90;;;18.10;99.90;;;;;;5032584;28;20280;-91
2023/08/13 06:09:10;;;;;;;6.97;3.90;;;18.20;99.90;;;;;;5055085;28;20604;-88
2023/08/13 06:11:37;;;;;;;9.60;3.57;;;18.40;99.90;;;;;;5056393;28;20183;-89
2023/08/13 06:14:03;;;;;;;7.63;3.97;;;18.50;99.90;;;;;;5053698;28;20175;-88
2023/08/13 06:16:28;;;;;;;5.93;3.80;;;18.60;99.90;;;;;;5052963;28;20221;-88
2023/08/13 06:18:54;;;;;;;5.10;3.70;;;18.80;99.90;;;;;;5052714;28;20190;-87
2023/08/13 06:21:20;;;;;;;7.33;4.07;;;18.90;99.90;;;;;;5054415;28;20207;-87
2023/08/13 06:23:46;;;;;;;4.83;3.77;;;19.10;99.90;;;;;;5052559;28;20186;-88
2023/08/13 06:26:11;;;;;;;4.57;3.67;;;19.20;99.90;;;;;;5053352;28;20182;-88
2023/08/13 06:28:38;;;;;;;5.73;3.20;;;19.40;99.90;;;;;;5052341;28;20203;-88
2023/08/13 06:31:04;;;;;;;5.13;3.22;;;19.50;99.90;;;;;;5052081;28;20275;-88
2023/08/13 06:33:30;;;;;;;6.47;3.73;;;19.60;99.90;;;;;;5049803;28;20193;-88
2023/08/13 06:35:56;;;;;;;8.70;4.60;;;19.70;99.90;;;;;;5053588;28;20649;-88
2023/08/13 06:38:23;;;;;;;7.13;3.30;;;19.90;99.90;;;;;;5053426;28;20285;-88
2023/08/13 06:40:49;;;;;;;4.87;3.40;;;20.10;99.90;;;;;;5053782;28;20310;-88
2023/08/13 06:43:15;;;;;;;8.93;3.97;;;20.30;99.90;;;;;;5055909;28;20190;-87
2023/08/13 06:45:40;;;;;;;5.75;4.30;;;20.50;99.90;;;;;;5057606;28;20220;-88
2023/08/13 06:48:06;;;;;;;5.47;3.60;;;20.70;99.90;;;;;;5056310;28;20254;-88
2023/08/13 06:50:35;;;;;;;5.38;3.70;;;20.90;99.90;;;;;;5048375;28;20207;-88
2023/08/13 06:53:01;;;;;;;6.30;3.78;;;21.20;99.90;;;;;;5038168;28;20171;-88
2023/08/13 06:55:26;;;;;;;3.85;3.35;;;21.40;99.90;;;;;;5045889;28;20205;-88
2023/08/13 06:57:53;;;;;;;7.63;3.60;;;21.50;99.90;;;;;;5036902;28;20225;-88
2023/08/13 07:00:20;;;;;;;6.97;3.90;;;21.70;99.90;;;;;;5037475;28;20626;-88
2023/08/13 07:02:48;;;;;;;7.80;3.40;;;22.00;99.90;;;;;;5036605;28;20194;-88
2023/08/13 07:05:15;;;;;;;6.00;3.55;;;22.40;99.90;;;;;;5038517;28;20170;-88
2023/08/13 07:07:41;;;;;;;4.97;2.95;;;22.80;99.90;;;;;;5037653;28;20218;-88
2023/08/13 07:10:07;;;;;;;2.90;2.65;;;23.10;99.90;;;;;;5036337;28;20557;-87
2023/08/13 07:12:33;;;;;;;9.02;3.38;;;23.20;99.90;;;;;;5035581;28;20202;-87
2023/08/13 07:14:58;;;;;;;4.07;3.28;;;23.40;99.90;;;;;;5037357;28;20175;-87
2023/08/13 07:17:24;;;;;;;3.97;3.20;;;23.50;99.90;;;;;;5035908;28;20278;-88
2023/08/13 07:19:50;;;;;;;4.57;3.10;;;23.70;99.90;;;;;;5054659;28;20195;-88
2023/08/13 07:22:16;;;;;;;3.90;3.60;;;24.00;99.90;;;;;;5055630;28;20186;-88
2023/08/13 07:24:42;;;;;;;4.80;3.50;;;24.10;99.90;;;;;;5055714;28;20170;-88
2023/08/13 07:27:09;;;;;;;6.60;3.55;;;24.30;99.90;;;;;;5056792;28;20561;-88
2023/08/13 07:29:35;;;;;;;6.70;3.38;;;24.60;99.90;;;;;;5055710;28;20197;-89
2023/08/13 07:32:01;;;;;;;6.35;3.30;;;24.90;99.90;;;;;;5055432;28;20187;-89
2023/08/13 07:34:27;;;;;;;5.68;2.95;;;24.90;99.90;;;;;;5055448;28;20259;-88
2023/08/13 07:36:52;;;;;;;7.45;3.13;;;24.80;99.90;;;;;;5056079;28;20207;-89
2023/08/13 07:39:18;;;;;;;6.30;3.42;;;24.70;99.90;;;;;;5055982;28;20179;-88
2023/08/13 07:41:46;;;;;;;9.93;4.05;;;24.80;99.90;;;;;;5063741;28;20303;-89
2023/08/13 07:44:16;;;;;;;4.22;3.47;;;25.00;99.90;;;;;;5044559;28;20719;-87
2023/08/13 07:46:42;;;;;;;5.78;2.88;;;25.20;99.90;;;;;;5045254;28;20199;-87
2023/08/13 07:49:07;;;;;;;8.85;3.92;;;25.50;99.90;;;;;;5054808;28;20615;-87
2023/08/13 07:51:33;;;;;;;6.63;3.45;;;25.90;99.90;;;;;;5056613;28;20212;-86
2023/08/13 07:53:59;;;;;;;3.70;3.10;;;26.50;99.90;;;;;;5054322;28;20214;-87
2023/08/13 07:56:25;;;;;;;9.07;3.28;;;26.50;99.90;;;;;;5054618;28;20564;-87
2023/08/13 07:58:50;;;;;;;4.45;2.85;;;26.50;99.90;;;;;;5055526;28;20181;-87
2023/08/13 08:01:19;;;;;;;5.57;4.38;;;26.50;99.90;;;;;;5057662;28;20213;-89
2023/08/13 08:03:45;;;;;;;5.78;2.75;;;26.90;99.90;;;;;;5046241;28;20222;-89
2023/08/13 08:06:12;;;;;;;5.55;3.13;;;27.10;99.90;;;;;;5055635;28;20171;-85
2023/08/13 08:08:38;;;;;;;5.63;3.22;;;27.10;99.90;;;;;;5055013;28;20571;-84
2023/08/13 08:11:03;;;;;;;6.60;3.47;;;27.40;99.90;;;;;;5036904;28;20182;-84
2023/08/13 08:13:32;;;;;;;10.40;5.18;;;27.30;99.90;;;;;;5056307;28;20201;-84
2023/08/13 08:15:58;;;;;;;3.53;3.10;;;27.50;99.90;;;;;;5036558;28;20176;-83
2023/08/13 08:18:24;;;;;;;3.78;2.63;;;27.60;99.90;;;;;;5036625;28;20282;-84
2023/08/13 08:20:50;;;;;;;4.10;2.95;;;27.50;99.90;;;;;;5036228;28;20218;-84
2023/08/13 08:23:15;;;;;;;4.80;4.50;;;27.60;99.90;;;;;;5034301;28;20176;-86
2023/08/13 08:25:41;;;;;;;4.70;2.88;;;27.60;99.90;;;;;;5037425;28;20172;-85
2023/08/13 08:28:07;;;;;;;4.20;3.55;;;27.30;99.90;;;;;;5041728;28;20247;-84
2023/08/13 08:30:33;;;;;;;4.95;4.60;;;27.00;99.90;;;;;;5021952;28;20206;-85
2023/08/13 08:32:59;;;;;;;6.60;4.22;;;26.60;99.90;;;;;;5037233;28;20227;-84
2023/08/13 08:35:24;;;;;;;3.30;3.10;;;26.50;99.90;;;;;;5023598;28;20199;-85
2023/08/13 08:37:53;;;;;;;6.40;3.00;;;26.80;99.90;;;;;;5042074;28;20199;-84
2023/08/13 08:40:18;;;;;;;6.40;2.42;;;26.90;99.90;;;;;;5041562;28;20211;-84
2023/08/13 08:42:45;;;;;;;4.65;4.28;;;26.70;99.90;;;;;;5056408;28;20193;-84
2023/08/13 08:45:13;;;;;;;6.50;4.65;;;26.50;99.90;;;;;;5067221;28;20171;-84
2023/08/13 08:47:40;;;;;;;5.03;4.53;;;26.50;99.90;;;;;;5062844;28;20735;-84
2023/08/13 08:50:10;;;;;;;5.60;4.13;;;26.40;99.90;;;;;;5069505;28;20189;-83
2023/08/13 08:52:38;;;;;;;4.97;3.10;;;26.40;99.90;;;;;;5069664;28;20209;-84
2023/08/13 08:55:04;;;;;;;4.70;3.15;;;26.40;99.90;;;;;;5066375;28;20178;-84
2023/08/13 08:57:30;;;;;;;5.13;3.00;;;26.60;99.90;;;;;;5054498;28;20293;-84
2023/08/13 08:59:55;;;;;;;3.42;2.78;;;26.70;99.90;;;;;;5054163;28;20546;-85
2023/08/13 09:02:21;;;;;;;4.28;3.25;;;27.00;99.90;;;;;;5052634;28;20189;-85
2023/08/13 09:04:47;;;;;;;5.97;3.13;;;27.40;99.90;;;;;;5055375;28;20175;-85
2023/08/13 09:07:15;;;;;;;6.60;4.95;;;27.80;99.90;;;;;;5053652;28;20186;-84
2023/08/13 09:09:43;;;;;;;4.03;3.72;;;28.30;99.90;;;;;;5056304;28;20249;-85
2023/08/13 09:12:09;;;;;;;5.05;4.70;;;28.30;99.90;;;;;;5056376;28;20257;-83
2023/08/13 09:14:35;;;;;;;5.57;3.50;;;28.60;99.90;;;;;;5057794;28;20174;-83
2023/08/13 09:17:04;;;;;;;6.07;4.30;;;28.80;99.90;;;;;;5054982;28;20260;-83
2023/08/13 09:19:34;;;;;;;3.70;3.40;;;28.80;99.90;;;;;;5054412;28;20209;-84
2023/08/13 09:22:01;;;;;;;5.35;4.07;;;29.00;99.90;;;;;;5053115;28;20178;-84
2023/08/13 09:24:41;;;;;;;5.20;3.15;;;29.10;99.90;;;;;;5055781;28;20175;-85
2023/08/13 09:27:08;;;;;;;6.45;5.95;;;29.30;99.90;;;;;;5051871;28;20210;-84
2023/08/13 09:29:37;;;;;;;4.85;4.55;;;29.40;99.90;;;;;;5049601;28;20213;-84
2023/08/13 09:32:04;;;;;;;6.25;4.47;;;29.30;99.90;;;;;;5032395;28;20530;-84
2023/08/13 09:34:31;;;;;;;3.92;3.60;;;29.30;99.90;;;;;;5032008;28;20172;-84
2023/08/13 09:36:57;;;;;;;4.72;4.32;;;29.20;99.90;;;;;;5033076;28;20549;-85
2023/08/13 09:39:27;;;;;;;8.15;4.95;;;29.20;99.90;;;;;;5032176;28;20175;-85
2023/08/13 09:41:55;;;;;;;7.03;6.15;;;29.20;99.90;;;;;;5032404;28;20195;-85
2023/08/13 09:44:25;;;;;;;6.32;4.18;;;29.30;99.90;;;;;;5032160;28;20202;-84
2023/08/13 09:46:54;;;;;;;8.00;3.00;;;29.40;99.90;;;;;;5033481;28;20271;-84
2023/08/13 09:49:22;;;;;;;3.80;2.53;;;29.70;99.90;;;;;;5033089;28;20170;-84
2023/08/13 09:51:51;;;;;;;3.80;3.00;;;29.70;99.90;;;;;;5032111;28;20233;-84
2023/08/13 09:54:38;;;;;;;6.10;3.25;;;29.90;99.90;;;;;;5032235;28;20172;-84
2023/08/13 09:57:07;;;;;;;5.55;3.15;;;30.00;99.90;;;;;;5031727;28;20572;-84
2023/08/13 09:59:36;;;;;;;4.55;4.05;;;29.90;99.90;;;;;;5054447;28;20668;-84
2023/08/13 10:02:21;;;;;;;7.57;7.00;;;29.70;99.90;;;;;;5050309;28;20217;-84
2023/08/13 10:04:48;;;;;;;4.78;3.97;;;29.70;99.90;;;;;;5052117;28;20171;-84
2023/08/13 10:07:14;;;;;;;8.73;4.70;;;29.70;99.90;;;;;;5053041;28;20186;-85
2023/08/13 10:09:41;;;;;;;4.18;3.38;;;29.80;99.90;;;;;;5051604;28;20232;-85
2023/08/13 10:12:09;;;;;;;4.72;3.30;;;29.90;99.90;;;;;;5052737;28;20597;-85
2023/08/13 10:14:35;;;;;;;4.53;4.10;;;29.80;99.90;;;;;;5051817;28;20247;-85
2023/08/13 10:17:04;;;;;;;2.83;2.38;;;29.90;99.90;;;;;;5053852;28;20198;-85
2023/08/13 10:19:38;;;;;;;3.92;3.03;;;30.00;99.90;;;;;;5051331;28;20181;-85
2023/08/13 10:22:07;;;;;;;6.55;5.95;;;29.80;99.90;;;;;;5051067;28;20170;-85
2023/08/13 10:24:33;;;;;;;5.18;4.47;;;29.50;99.90;;;;;;5051311;28;20171;-85
2023/08/13 10:27:02;;;;;;;2.80;2.60;;;29.10;99.90;;;;;;5036560;28;20226;-84
2023/08/13 10:29:40;;;;;;;4.80;2.55;;;28.70;99.90;;;;;;5027465;28;20552;-84
2023/08/13 10:32:16;;;;;;;4.70;3.05;;;28.40;99.90;;;;;;5052108;28;20175;-84
2023/08/13 10:34:53;;;;;;;9.63;4.00;;;28.00;99.90;;;;;;5052497;28;20169;-84
2023/08/13 10:37:30;;;;;;;5.68;3.67;;;27.60;99.90;;;;;;5051463;28;20195;-87
2023/08/13 10:39:56;;;;;;;4.20;3.30;;;27.10;99.90;;;;;;5051641;28;20247;-88
2023/08/13 10:42:36;;;;;;;12.82;4.05;;;26.90;99.90;;;;;;5051266;28;20182;-87
2023/08/13 10:45:05;;;;;;;6.32;4.72;;;26.50;99.90;;;;;;5057466;28;20166;-86
2023/08/13 10:47:55;;;;;;;6.60;5.53;;;26.30;99.90;;;;;;5053721;28;20209;-87
2023/08/13 10:50:22;;;;;;;6.65;4.22;;;26.30;99.90;;;;;;5051717;28;20175;-87
2023/08/13 10:53:09;;;;;;;5.82;4.43;;;26.40;99.90;;;;;;5036331;28;20210;-86
2023/08/13 10:55:47;;;;;;;7.47;3.33;;;26.60;99.90;;;;;;5031304;28;20226;-87
2023/08/13 10:58:31;;;;;;;4.38;3.17;;;26.70;99.90;;;;;;5034395;28;20293;-86
2023/08/13 11:01:11;;;;;;;9.25;4.57;;;26.80;99.90;;;;;;5050473;28;20201;-85
2023/08/13 11:03:52;;;;;;;6.65;3.60;;;26.90;99.90;;;;;;5011597;28;20199;-87
2023/08/13 11:06:20;;;;;;;4.85;4.43;;;26.80;99.90;;;;;;5015184;28;20176;-87
2023/08/13 11:08:48;;;;;;;6.18;3.80;;;26.80;99.90;;;;;;5050776;28;20190;-86
2023/08/13 11:11:15;;;;;;;8.90;5.50;;;26.70;99.90;;;;;;5052401;28;20175;-86
2023/08/13 11:13:41;;;;;;;4.60;3.60;;;26.50;99.90;;;;;;5050993;28;20175;-87
2023/08/13 11:16:07;;;;;;;5.25;3.38;;;26.50;99.90;;;;;;5051762;28;20183;-87
2023/08/13 11:18:33;;;;;;;6.10;3.20;;;26.50;99.90;;;;;;5051061;28;20198;-87
2023/08/13 11:20:59;;;;;;;4.85;3.63;;;26.60;99.90;;;;;;5057480;28;20224;-86
2023/08/13 11:23:25;;;;;;;4.72;3.00;;;26.70;99.90;;;;;;5051597;28;20546;-87
2023/08/13 11:25:52;;;;;;;7.03;3.67;;;26.90;99.90;;;;;;5034667;28;20592;-87
2023/08/13 11:28:29;;;;;;;5.50;3.53;;;27.00;99.90;;;;;;5051233;28;20190;-86
2023/08/13 11:30:56;;;;;;;4.45;3.28;;;27.20;99.90;;;;;;5057536;28;20553;-86
2023/08/13 11:33:24;;;;;;;7.47;4.13;;;27.20;99.90;;;;;;5055601;28;20178;-87
2023/08/13 11:35:52;;;;;;;6.90;4.18;;;27.10;99.90;;;;;;5052093;28;20551;-86
2023/08/13 11:38:18;;;;;;;6.75;4.28;;;27.20;99.90;;;;;;5055116;28;20209;-87
2023/08/13 11:40:44;;;;;;;5.97;4.32;;;27.30;99.90;;;;;;5053290;28;20264;-87
2023/08/13 11:43:12;;;;;;;8.55;3.80;;;27.40;99.90;;;;;;5054825;28;20553;-86
2023/08/13 11:45:40;;;;;;;4.53;3.95;;;27.20;99.90;;;;;;5055441;28;20856;-86
2023/08/13 11:48:09;;;;;;;4.97;3.13;;;27.20;99.90;;;;;;5056418;28;20265;-86
2023/08/13 11:50:34;;;;;;;5.03;4.07;;;27.20;99.90;;;;;;5055163;28;20197;-88
2023/08/13 11:53:17;;;;;;;6.63;3.00;;;27.20;99.90;;;;;;5054408;28;20262;-86
2023/08/13 11:55:46;;;;;;;4.60;3.65;;;27.20;99.90;;;;;;5038601;28;20190;-87
2023/08/13 11:58:19;;;;;;;5.88;3.10;;;27.30;99.90;;;;;;5051816;28;20198;-87
2023/08/13 12:00:48;;;;;;;5.43;3.22;;;27.40;99.90;;;;;;5056086;28;20211;-87
2023/08/13 12:03:18;;;;;;;6.43;4.00;;;27.50;99.90;;;;;;5021387;28;20175;-86
2023/08/13 12:05:43;;;;;;;5.32;3.10;;;27.40;99.90;;;;;;5055059;28;20179;-87
2023/08/13 12:08:10;;;;;;;6.75;4.03;;;27.40;99.90;;;;;;5051527;28;20191;-86
2023/08/13 12:10:38;;;;;;;4.35;3.00;;;27.40;99.90;;;;;;5052438;28;20194;-86
2023/08/13 12:13:04;;;;;;;5.90;3.97;;;27.40;99.90;;;;;;5035885;28;20210;-87
2023/08/13 12:15:31;;;;;;;3.70;3.28;;;27.50;99.90;;;;;;5036920;28;20175;-86
2023/08/13 12:17:58;;;;;;;6.70;3.00;;;27.70;99.90;;;;;;5045167;28;20254;-86
2023/08/13 12:20:25;;;;;;;5.45;3.17;;;27.90;99.90;;;;;;5053247;28;20210;-86
2023/08/13 12:22:51;;;;;;;5.78;3.33;;;28.00;99.90;;;;;;5050609;28;20179;-86
2023/08/13 12:25:18;;;;;;;5.85;3.50;;;28.10;99.90;;;;;;5032807;28;20175;-86
2023/08/13 12:27:45;;;;;;;4.63;2.95;;;28.10;99.90;;;;;;5032974;28;20191;-86
2023/08/13 12:30:12;;;;;;;4.47;3.72;;;28.00;99.90;;;;;;5035740;28;20178;-87
2023/08/13 12:32:37;;;;;;;3.28;2.85;;;27.90;99.90;;;;;;5033863;28;20828;-87
2023/08/13 12:35:03;;;;;;;5.70;3.95;;;27.90;99.90;;;;;;5034973;28;20218;-86
2023/08/13 12:37:30;;;;;;;5.07;4.63;;;28.10;99.90;;;;;;5033880;28;20249;-86
2023/08/13 12:39:55;;;;;;;5.47;4.15;;;28.20;99.90;;;;;;5034113;28;20191;-87
2023/08/13 12:42:21;;;;;;;3.85;3.17;;;28.60;99.90;;;;;;5033069;28;20241;-87
2023/08/13 12:44:48;;;;;;;5.95;4.22;;;28.50;99.90;;;;;;5032911;28;20218;-86
2023/08/13 12:47:14;;;;;;;3.10;2.80;;;28.70;99.90;;;;;;5042196;28;20296;-87